createdAt,value
2023-01-15T00:02:25.569Z,0.90
2023-01-15T00:04:55.242Z,1.00
2023-01-15T00:07:23.546Z,0.73
2023-01-15T00:09:52.083Z,1.55
2023-01-15T00:12:20.450Z,0.70
2023-01-15T00:14:48.895Z,0.85
2023-01-15T00:17:17.251Z,1.08
2023-01-15T00:19:45.582Z,1.10
2023-01-15T00:22:15.815Z,1.30
2023-01-15T00:25:01.823Z,0.90
2023-01-15T00:27:44.254Z,0.73
2023-01-15T00:30:13.882Z,0.55
2023-01-15T00:32:42.628Z,0.90
2023-01-15T00:35:13.681Z,1.40
2023-01-15T00:37:43.464Z,1.27
2023-01-15T00:40:12.223Z,0.88
2023-01-15T00:42:40.612Z,0.95
2023-01-15T00:45:10.972Z,3.33
2023-01-15T00:47:39.730Z,1.20
2023-01-15T00:50:09.306Z,0.95
2023-01-15T00:52:37.686Z,0.32
2023-01-15T00:55:11.242Z,0.80
2023-01-15T00:57:39.694Z,2.03
2023-01-15T01:00:08.431Z,0.80
2023-01-15T01:02:37.000Z,0.98
2023-01-15T01:05:08.004Z,0.88
2023-01-15T01:07:36.272Z,0.77
2023-01-15T01:10:04.818Z,0.43
2023-01-15T01:12:34.511Z,0.43
2023-01-15T01:15:02.954Z,0.93
2023-01-15T01:17:31.558Z,0.82
2023-01-15T01:19:59.953Z,0.55
2023-01-15T01:22:28.271Z,0.47
2023-01-15T01:24:56.595Z,0.30
2023-01-15T01:27:27.827Z,0.77
2023-01-15T01:29:57.604Z,0.35
2023-01-15T01:32:26.024Z,1.20
2023-01-15T01:34:54.492Z,1.35
2023-01-15T01:37:22.998Z,1.00
2023-01-15T01:39:51.380Z,0.80
2023-01-15T01:42:20.431Z,0.25
2023-01-15T01:45:16.302Z,0.20
2023-01-15T01:47:44.554Z,0.75
2023-01-15T01:50:14.445Z,0.40
2023-01-15T01:52:45.735Z,0.40
2023-01-15T01:55:15.992Z,0.57
2023-01-15T01:57:44.521Z,0.85
2023-01-15T02:00:21.093Z,0.98
2023-01-15T02:02:50.749Z,0.75
2023-01-15T02:05:23.438Z,1.27
2023-01-15T02:07:51.782Z,0.85
2023-01-15T02:10:20.516Z,1.20
2023-01-15T02:12:51.833Z,1.10
2023-01-15T02:15:54.836Z,0.28
2023-01-15T02:18:25.643Z,0.52
2023-01-15T02:20:57.110Z,0.40
2023-01-15T02:23:29.894Z,1.00
2023-01-15T02:26:04.614Z,0.77
2023-01-15T02:28:35.435Z,1.10
2023-01-15T02:31:06.885Z,0.30
2023-01-15T02:33:37.221Z,0.60
2023-01-15T02:36:07.772Z,0.80
2023-01-15T02:38:38.035Z,1.00
2023-01-15T02:41:07.647Z,0.70
2023-01-15T02:43:38.508Z,1.33
2023-01-15T02:46:08.283Z,1.48
2023-01-15T02:48:38.730Z,0.88
2023-01-15T02:51:10.414Z,1.65
2023-01-15T02:53:40.441Z,1.38
2023-01-15T02:56:11.099Z,0.88
2023-01-15T02:58:41.993Z,1.20
2023-01-15T03:01:13.405Z,0.93
2023-01-15T03:03:44.586Z,0.77
2023-01-15T03:06:16.010Z,1.23
2023-01-15T03:08:44.521Z,1.05
2023-01-15T03:11:14.363Z,0.68
2023-01-15T03:13:48.349Z,1.13
2023-01-15T03:16:38.474Z,1.92
2023-01-15T03:19:09.650Z,1.60
2023-01-15T03:21:42.145Z,0.90
2023-01-15T03:24:11.990Z,1.95
2023-01-15T03:26:40.348Z,1.17
2023-01-15T03:29:11.311Z,1.35
2023-01-15T03:31:39.743Z,1.92
2023-01-15T03:34:08.114Z,1.17
2023-01-15T03:36:36.538Z,0.50
2023-01-15T03:39:05.601Z,2.25
2023-01-15T03:41:39.305Z,1.48
2023-01-15T03:44:14.944Z,1.55
2023-01-15T03:46:52.722Z,0.93
2023-01-15T03:49:25.738Z,1.10
2023-01-15T03:52:00.719Z,1.67
2023-01-15T03:54:34.592Z,0.85
2023-01-15T03:59:34.408Z,0.55
2023-01-15T04:02:04.244Z,1.42
2023-01-15T04:04:33.111Z,1.10
2023-01-15T04:07:01.653Z,0.80
2023-01-15T04:09:29.921Z,0.68
2023-01-15T04:12:00.419Z,1.40
2023-01-15T04:14:28.804Z,2.45
2023-01-15T04:16:58.456Z,3.03
2023-01-15T04:19:26.735Z,2.28
2023-01-15T04:21:55.053Z,2.10
2023-01-15T04:24:26.335Z,1.92
2023-01-15T04:26:56.082Z,1.90
2023-01-15T04:29:26.376Z,1.92
2023-01-15T04:32:01.974Z,1.92
2023-01-15T04:34:32.480Z,1.95
2023-01-15T04:37:00.737Z,0.65
2023-01-15T04:39:34.502Z,0.52
2023-01-15T04:44:54.163Z,1.23
2023-01-15T04:47:24.229Z,0.68
2023-01-15T04:49:52.641Z,1.70
2023-01-15T04:52:20.951Z,2.45
2023-01-15T04:54:49.235Z,0.50
2023-01-15T04:57:17.517Z,1.73
2023-01-15T04:59:45.826Z,0.17
2023-01-15T05:02:15.453Z,0.20
2023-01-15T05:04:47.659Z,0.40
2023-01-15T05:07:15.977Z,0.13
2023-01-15T05:09:44.335Z,0.20
2023-01-15T05:12:16.136Z,0.47
2023-01-15T05:14:46.609Z,0.20
2023-01-15T05:17:17.659Z,0.35
2023-01-15T05:19:47.261Z,0.30
2023-01-15T05:22:15.605Z,0.32
2023-01-15T05:24:45.175Z,0.17
2023-01-15T05:27:14.601Z,0.20
2023-01-15T05:29:42.931Z,0.17
2023-01-15T05:32:14.575Z,0.20
2023-01-15T05:34:45.354Z,0.17
2023-01-15T05:37:16.769Z,0.15
2023-01-15T05:39:45.127Z,0.20
2023-01-15T05:42:13.492Z,0.20
2023-01-15T05:44:42.083Z,0.22
2023-01-15T05:47:11.965Z,0.10
2023-01-15T05:49:40.285Z,0.30
2023-01-15T05:52:09.208Z,1.23
2023-01-15T05:54:38.981Z,0.70
2023-01-15T05:57:07.494Z,0.65
2023-01-15T05:59:36.263Z,0.30
2023-01-15T06:02:04.832Z,0.10
2023-01-15T06:04:33.295Z,0.20
2023-01-15T06:07:01.631Z,0.60
2023-01-15T06:09:29.954Z,0.20
2023-01-15T06:11:59.974Z,0.70
2023-01-15T06:14:28.318Z,0.75
2023-01-15T06:16:56.668Z,0.57
2023-01-15T06:19:24.969Z,0.20
2023-01-15T06:21:54.408Z,0.77
2023-01-15T06:24:23.099Z,0.50
2023-01-15T06:26:51.476Z,0.20
2023-01-15T06:29:21.214Z,0.77
2023-01-15T06:31:50.228Z,0.20
2023-01-15T06:34:20.558Z,0.20
2023-01-15T06:36:49.026Z,1.00
2023-01-15T06:39:17.482Z,0.30
2023-01-15T06:42:04.076Z,0.98
2023-01-15T06:44:51.643Z,0.93
2023-01-15T06:47:24.829Z,0.70
2023-01-15T06:49:54.845Z,1.75
2023-01-15T06:52:23.286Z,2.70
2023-01-15T06:54:51.867Z,10.40
2023-01-15T06:57:20.336Z,2.08
2023-01-15T06:59:50.689Z,8.80
2023-01-15T07:02:19.200Z,2.15
2023-01-15T07:04:48.134Z,3.10
2023-01-15T07:07:17.098Z,8.55
2023-01-15T07:09:45.731Z,1.92
2023-01-15T07:12:15.500Z,2.28
2023-01-15T07:14:44.234Z,1.38
2023-01-15T07:17:14.554Z,0.95
2023-01-15T07:19:43.457Z,1.38
2023-01-15T07:22:12.310Z,1.00
2023-01-15T07:24:40.867Z,3.40
2023-01-15T07:27:09.335Z,2.35
2023-01-15T07:29:38.197Z,2.45
2023-01-15T07:32:07.093Z,2.30
2023-01-15T07:34:37.314Z,1.13
2023-01-15T07:37:06.023Z,2.63
2023-01-15T07:39:34.723Z,3.72
2023-01-15T07:42:20.834Z,1.25
2023-01-15T07:45:06.773Z,1.63
2023-01-15T07:47:52.706Z,2.15
2023-01-15T07:50:24.308Z,6.70
2023-01-15T07:52:55.661Z,2.92
2023-01-15T07:55:24.591Z,7.97
2023-01-15T07:57:53.968Z,13.68
2023-01-15T08:00:23.507Z,10.40
2023-01-15T08:02:52.197Z,5.38
2023-01-15T08:05:22.371Z,6.53
2023-01-15T08:07:50.771Z,2.80
2023-01-15T08:10:21.712Z,2.72
2023-01-15T08:13:09.210Z,2.92
2023-01-15T08:15:40.408Z,2.45
2023-01-15T08:18:08.797Z,2.72
2023-01-15T08:20:38.637Z,1.70
2023-01-15T08:23:07.009Z,2.05
2023-01-15T08:25:35.373Z,4.88
2023-01-15T08:28:04.236Z,1.15
2023-01-15T08:30:37.035Z,1.00
2023-01-15T08:33:05.787Z,2.57
2023-01-15T08:35:35.625Z,0.43
2023-01-15T08:38:07.537Z,0.82
2023-01-15T08:40:36.384Z,0.75
2023-01-15T08:43:04.785Z,1.80
2023-01-15T08:45:33.210Z,1.88
2023-01-15T08:48:04.769Z,1.10
2023-01-15T08:50:33.366Z,1.88
2023-01-15T08:53:01.873Z,2.28
2023-01-15T08:55:33.693Z,2.17
2023-01-15T08:58:02.236Z,1.63
2023-01-15T09:00:30.880Z,1.70
2023-01-15T09:02:59.658Z,1.58
2023-01-15T09:05:29.521Z,1.70
2023-01-15T09:07:57.955Z,3.55
2023-01-15T09:10:26.378Z,1.75
2023-01-15T09:12:56.139Z,2.00
2023-01-15T09:15:24.840Z,1.85
2023-01-15T09:17:53.176Z,2.20
2023-01-15T09:20:25.262Z,1.77
2023-01-15T09:22:53.753Z,3.60
2023-01-15T09:25:24.417Z,2.92
2023-01-15T09:27:53.024Z,2.40
2023-01-15T09:30:22.980Z,2.10
2023-01-15T09:32:51.329Z,4.85
2023-01-15T09:35:19.797Z,6.70
2023-01-15T09:37:52.184Z,4.50
2023-01-15T09:40:31.970Z,2.90
2023-01-15T09:43:04.535Z,3.45
2023-01-15T09:45:38.232Z,4.35
2023-01-15T09:48:20.575Z,3.42
2023-01-15T09:51:01.903Z,2.72
2023-01-15T09:53:42.653Z,2.50
2023-01-15T09:56:14.674Z,3.25
2023-01-15T09:58:43.293Z,3.22
2023-01-15T10:01:17.736Z,2.17
2023-01-15T10:03:50.005Z,6.00
2023-01-15T10:06:20.012Z,3.35
2023-01-15T10:08:52.517Z,4.00
2023-01-15T10:11:51.502Z,5.32
2023-01-15T10:14:30.389Z,4.65
2023-01-15T10:17:00.177Z,5.20
2023-01-15T10:19:40.365Z,4.10
2023-01-15T10:24:41.616Z,3.30
2023-01-15T10:27:17.308Z,1.73
2023-01-15T10:29:51.405Z,3.28
2023-01-15T10:32:30.176Z,3.17
2023-01-15T10:35:08.831Z,3.25
2023-01-15T10:37:42.144Z,3.75
2023-01-15T10:40:27.105Z,4.40
2023-01-15T10:43:00.213Z,3.25
2023-01-15T10:45:30.026Z,2.33
2023-01-15T10:48:02.683Z,36.67
2023-01-15T10:50:41.727Z,37.13
2023-01-15T10:53:25.597Z,31.60
2023-01-15T10:56:00.493Z,21.95
2023-01-15T10:58:32.422Z,4.78
2023-01-15T11:01:02.429Z,6.95
2023-01-15T11:03:34.930Z,3.45
2023-01-15T11:06:03.281Z,2.42
2023-01-15T11:11:42.221Z,6.78
2023-01-15T11:14:28.221Z,8.20
2023-01-15T11:17:17.175Z,4.00
2023-01-15T11:19:46.916Z,3.50
2023-01-15T11:22:18.265Z,2.67
2023-01-15T11:24:52.745Z,3.72
2023-01-15T11:27:24.640Z,4.10
2023-01-15T11:29:54.757Z,2.75
2023-01-15T11:32:34.570Z,2.47
2023-01-15T11:35:06.128Z,2.05
2023-01-15T11:37:39.127Z,1.88
2023-01-15T11:40:08.744Z,2.15
2023-01-15T11:42:56.440Z,1.42
2023-01-15T11:45:43.138Z,1.23
2023-01-15T11:48:48.735Z,2.22
2023-01-15T11:51:19.675Z,1.85
2023-01-15T11:53:49.778Z,2.67
2023-01-15T11:56:19.308Z,3.95
2023-01-15T11:58:50.942Z,1.50
2023-01-15T12:01:24.817Z,2.10
2023-01-15T12:06:23.987Z,2.92
2023-01-15T12:08:53.733Z,2.40
2023-01-15T12:11:29.891Z,2.40
2023-01-15T12:14:05.487Z,2.17
2023-01-15T12:16:37.150Z,1.17
2023-01-15T12:19:11.295Z,1.27
2023-01-15T12:21:54.775Z,1.00
2023-01-15T12:24:47.427Z,2.03
2023-01-15T12:27:30.889Z,4.50
2023-01-15T12:30:01.159Z,2.22
2023-01-15T12:32:31.735Z,2.15
2023-01-15T12:35:02.204Z,2.28
2023-01-15T12:37:32.631Z,1.90
2023-01-15T12:40:02.617Z,2.00
2023-01-15T12:43:02.600Z,2.30
2023-01-15T12:45:33.620Z,1.95
2023-01-15T12:48:06.108Z,1.55
2023-01-15T12:50:36.984Z,2.25
2023-01-15T12:53:11.378Z,0.90
2023-01-15T12:55:42.830Z,0.98
2023-01-15T12:58:19.385Z,1.20
2023-01-15T13:00:48.064Z,1.30
2023-01-15T13:03:21.579Z,1.83
2023-01-15T13:05:51.384Z,2.15
2023-01-15T13:08:23.978Z,1.55
2023-01-15T13:10:53.680Z,2.33
2023-01-15T13:13:24.857Z,1.20
2023-01-15T13:15:59.546Z,1.20
2023-01-15T13:18:34.278Z,3.80
2023-01-15T13:21:09.201Z,1.27
2023-01-15T13:23:50.828Z,2.28
2023-01-15T13:26:43.138Z,1.05
2023-01-15T13:29:17.765Z,1.00
2023-01-15T13:31:58.255Z,2.03
2023-01-15T13:34:39.562Z,1.08
2023-01-15T13:37:17.172Z,1.27
2023-01-15T13:39:48.373Z,2.42
2023-01-15T13:42:37.497Z,2.40
2023-01-15T13:45:30.422Z,1.50
2023-01-15T13:48:06.404Z,1.75
2023-01-15T13:50:37.248Z,2.08
2023-01-15T13:53:09.670Z,2.67
2023-01-15T13:55:41.586Z,2.53
2023-01-15T13:58:25.356Z,1.92
2023-01-15T14:01:11.416Z,1.83
2023-01-15T14:03:57.849Z,2.42
2023-01-15T14:06:36.961Z,1.48
2023-01-15T14:09:05.375Z,1.83
2023-01-15T14:11:41.376Z,3.10
2023-01-15T14:14:23.809Z,1.60
2023-01-15T14:17:05.084Z,1.65
2023-01-15T14:20:03.708Z,1.23
2023-01-15T14:22:47.525Z,2.20
2023-01-15T14:25:22.013Z,1.08
2023-01-15T14:27:58.712Z,0.80
2023-01-15T14:30:46.913Z,0.52
2023-01-15T14:33:25.853Z,1.88
2023-01-15T14:35:54.294Z,4.38
2023-01-15T14:38:24.662Z,3.88
2023-01-15T14:41:02.879Z,3.97
2023-01-15T14:43:36.336Z,4.40
2023-01-15T14:46:17.901Z,2.15
2023-01-15T14:49:05.370Z,5.22
2023-01-15T14:51:37.370Z,3.05
2023-01-15T14:54:11.079Z,3.92
2023-01-15T14:56:42.691Z,1.58
2023-01-15T14:59:15.637Z,2.60
2023-01-15T15:01:54.385Z,2.13
2023-01-15T15:04:34.426Z,2.42
2023-01-15T15:07:04.787Z,2.97
2023-01-15T15:09:36.224Z,2.30
2023-01-15T15:12:21.336Z,1.83
2023-01-15T15:18:21.048Z,5.07
2023-01-15T15:20:53.747Z,4.03
2023-01-15T15:23:26.827Z,3.75
2023-01-15T15:25:59.673Z,3.30
2023-01-15T15:28:28.148Z,5.23
2023-01-15T15:31:00.606Z,4.75
2023-01-15T15:33:30.316Z,3.38
2023-01-15T15:36:01.942Z,4.32
2023-01-15T15:38:30.470Z,4.45
2023-01-15T15:41:02.104Z,4.15
2023-01-15T15:43:53.700Z,7.53
2023-01-15T15:46:48.097Z,6.40
2023-01-15T15:51:49.728Z,6.30
2023-01-15T15:54:19.190Z,6.72
2023-01-15T15:56:49.434Z,7.57
2023-01-15T15:59:21.005Z,8.10
2023-01-15T16:01:50.014Z,4.80
2023-01-15T16:04:22.460Z,7.03
2023-01-15T16:06:52.863Z,8.68
2023-01-15T16:09:25.566Z,6.70
2023-01-15T16:11:55.739Z,6.25
2023-01-15T16:14:24.925Z,6.05
2023-01-15T16:16:54.275Z,5.40
2023-01-15T16:19:26.557Z,6.45
2023-01-15T16:21:56.919Z,5.07
2023-01-15T16:24:27.593Z,6.40
2023-01-15T16:26:59.406Z,6.75
2023-01-15T16:29:28.949Z,4.47
2023-01-15T16:31:59.631Z,10.40
2023-01-15T16:34:30.275Z,6.28
2023-01-15T16:37:00.670Z,9.35
2023-01-15T16:39:40.223Z,8.75
2023-01-15T16:42:25.068Z,6.18
2023-01-15T16:44:59.413Z,4.00
2023-01-15T16:47:32.928Z,8.85
2023-01-15T16:50:22.047Z,6.43
2023-01-15T16:52:57.657Z,5.53
2023-01-15T16:55:45.990Z,3.55
2023-01-15T16:58:18.878Z,5.50
2023-01-15T17:00:48.710Z,3.67
2023-01-15T17:03:18.918Z,2.60
2023-01-15T17:05:48.529Z,5.07
2023-01-15T17:08:19.985Z,4.32
2023-01-15T17:10:57.910Z,4.22
2023-01-15T17:13:41.589Z,2.28
2023-01-15T17:16:18.738Z,2.45
2023-01-15T17:18:52.976Z,3.97
2023-01-15T17:21:23.724Z,2.50
2023-01-15T17:23:53.811Z,4.70
2023-01-15T17:26:23.449Z,4.28
2023-01-15T17:28:52.080Z,5.43
2023-01-15T17:31:25.908Z,4.60
2023-01-15T17:36:25.870Z,3.38
2023-01-15T17:38:56.364Z,3.05
2023-01-15T17:41:26.930Z,2.33
2023-01-15T17:44:08.390Z,2.40
2023-01-15T17:46:37.259Z,2.97
2023-01-15T17:49:06.048Z,2.75
2023-01-15T17:51:34.761Z,3.95
2023-01-15T17:54:05.023Z,3.38
2023-01-15T17:56:51.126Z,4.68
2023-01-15T17:59:38.178Z,5.97
2023-01-15T18:02:32.302Z,2.47
2023-01-15T18:05:18.596Z,3.13
2023-01-15T18:07:47.812Z,3.60
2023-01-15T18:10:21.137Z,3.38
2023-01-15T18:12:52.233Z,4.03
2023-01-15T18:15:21.083Z,4.28
2023-01-15T18:17:49.941Z,3.10
2023-01-15T18:20:19.068Z,3.25
2023-01-15T18:22:48.299Z,4.43
2023-01-15T18:25:26.324Z,2.28
2023-01-15T18:27:54.892Z,2.70
2023-01-15T18:30:23.552Z,3.67
2023-01-15T18:32:52.128Z,2.75
2023-01-15T18:35:26.598Z,3.50
2023-01-15T18:37:55.308Z,4.18
2023-01-15T18:40:29.771Z,2.95
2023-01-15T18:43:16.038Z,2.92
2023-01-15T18:46:05.383Z,3.30
2023-01-15T18:48:34.265Z,3.85
2023-01-15T18:51:08.445Z,3.40
2023-01-15T18:53:36.865Z,3.55
2023-01-15T18:56:09.578Z,4.32
2023-01-15T18:58:38.007Z,4.50
2023-01-15T19:01:09.124Z,3.17
2023-01-15T19:03:37.573Z,3.63
2023-01-15T19:06:15.577Z,6.28
2023-01-15T19:08:44.642Z,5.30
2023-01-15T19:11:15.616Z,4.40
2023-01-15T19:13:43.939Z,4.63
2023-01-15T19:16:26.384Z,5.72
2023-01-15T19:18:55.056Z,7.03
2023-01-15T19:21:25.838Z,8.52
2023-01-15T19:23:56.731Z,6.60
2023-01-15T19:26:53.898Z,6.45
2023-01-15T19:29:23.799Z,6.45
2023-01-15T19:31:55.483Z,5.25
2023-01-15T19:34:34.239Z,7.43
2023-01-15T19:37:03.001Z,5.43
2023-01-15T19:39:34.939Z,6.75
2023-01-15T19:42:21.198Z,5.75
2023-01-15T19:45:23.675Z,4.38
2023-01-15T19:48:11.579Z,4.82
2023-01-15T19:50:46.962Z,4.35
2023-01-15T19:53:15.889Z,5.40
2023-01-15T19:55:45.425Z,3.63
2023-01-15T19:58:16.947Z,5.10
2023-01-15T20:00:48.417Z,4.45
2023-01-15T20:03:18.670Z,3.70
2023-01-15T20:05:48.166Z,3.38
2023-01-15T20:08:21.252Z,3.95
2023-01-15T20:10:52.997Z,4.63
2023-01-15T20:13:44.733Z,3.97
2023-01-15T20:16:14.865Z,2.75
2023-01-15T20:18:44.611Z,4.43
2023-01-15T20:21:16.323Z,3.65
2023-01-15T20:26:38.279Z,3.80
2023-01-15T20:29:09.857Z,3.88
2023-01-15T20:32:04.310Z,3.17
2023-01-15T20:37:06.419Z,3.25
2023-01-15T20:39:36.837Z,2.20
2023-01-15T20:42:23.299Z,2.90
2023-01-15T20:44:54.753Z,2.47
2023-01-15T20:47:55.811Z,2.03
2023-01-15T20:50:24.458Z,3.55
2023-01-15T20:52:54.993Z,2.30
2023-01-15T20:55:25.054Z,5.18
2023-01-15T20:57:53.483Z,8.88
2023-01-15T21:00:23.023Z,10.52
2023-01-15T21:02:54.977Z,8.32
2023-01-15T21:05:27.207Z,7.25
2023-01-15T21:07:59.645Z,7.35
2023-01-15T21:10:31.539Z,3.97
2023-01-15T21:13:16.636Z,2.35
2023-01-15T21:15:48.087Z,3.80
2023-01-15T21:18:17.078Z,2.63
2023-01-15T21:20:45.547Z,4.43
2023-01-15T21:23:18.511Z,3.28
2023-01-15T21:25:46.889Z,3.92
2023-01-15T21:28:15.217Z,4.30
2023-01-15T21:30:49.141Z,4.80
2023-01-15T21:33:17.548Z,3.72
2023-01-15T21:35:51.120Z,3.92
2023-01-15T21:38:20.781Z,2.90
2023-01-15T21:40:49.115Z,2.92
2023-01-15T21:43:52.423Z,4.53
2023-01-15T21:46:23.133Z,7.05
2023-01-15T21:48:56.597Z,7.40
2023-01-15T21:51:25.096Z,9.50
2023-01-15T21:54:00.759Z,10.48
2023-01-15T21:56:29.307Z,6.65
2023-01-15T21:59:02.464Z,6.47
2023-01-15T22:01:30.855Z,8.77
2023-01-15T22:03:59.414Z,7.93
2023-01-15T22:06:27.814Z,5.38
2023-01-15T22:08:57.692Z,2.90
2023-01-15T22:11:43.682Z,4.18
2023-01-15T22:14:12.944Z,4.15
2023-01-15T22:16:41.326Z,13.63
2023-01-15T22:19:11.904Z,7.72
2023-01-15T22:21:40.428Z,7.82
2023-01-15T22:24:10.576Z,6.93
2023-01-15T22:26:43.040Z,4.95
2023-01-15T22:29:13.890Z,4.60
2023-01-15T22:31:42.318Z,4.00
2023-01-15T22:34:10.741Z,4.38
2023-01-15T22:36:39.116Z,2.88
2023-01-15T22:39:07.588Z,2.50
2023-01-15T22:41:55.154Z,3.03
2023-01-15T22:44:23.797Z,3.45
2023-01-15T22:46:54.046Z,3.20
2023-01-15T22:49:23.034Z,5.57
2023-01-15T22:51:52.200Z,3.88
2023-01-15T22:54:20.680Z,3.95
2023-01-15T22:56:50.440Z,3.88
2023-01-15T22:59:19.439Z,2.97
2023-01-15T23:01:48.144Z,4.28
2023-01-15T23:04:19.290Z,2.78
2023-01-15T23:06:48.853Z,3.65
2023-01-15T23:09:17.189Z,3.63
2023-01-15T23:11:46.214Z,2.92
2023-01-15T23:14:16.596Z,6.32
2023-01-15T23:16:45.472Z,3.28
2023-01-15T23:19:15.318Z,2.90
2023-01-15T23:21:44.256Z,2.95
2023-01-15T23:24:13.230Z,2.22
2023-01-15T23:26:41.576Z,5.15
2023-01-15T23:29:10.003Z,2.75
2023-01-15T23:31:39.928Z,3.38
2023-01-15T23:34:08.428Z,3.88
2023-01-15T23:36:36.978Z,5.43
2023-01-15T23:39:05.531Z,3.17
2023-01-15T23:41:47.863Z,2.58
2023-01-15T23:44:35.133Z,4.40
2023-01-15T23:47:05.092Z,3.35
2023-01-15T23:49:33.719Z,4.03
2023-01-15T23:52:02.326Z,2.78
2023-01-15T23:54:31.682Z,3.88
2023-01-15T23:57:01.188Z,2.90
2023-01-15T23:59:30.094Z,5.00
